Ararangua, Brazil
Current Conditions -  °F | °C
As of 11:00 AM on Tuesday 21 Oct 2014 (Local Time) from SBCM Reporting Station
Scattered Clouds Scattered Clouds  
Wind Chill: 70°   Ceiling: Unl
Heat Index: 70°   Visibility: 6mi
Dew Point: 55°   Wind: 2mph
Humidity: 60%   Direction: 160°SSE
Pressure: 30.24"   Gusts: NA
Location:  28.93°S, 49.49°W
Report Text: SBCM 211300Z 16002KT 9999 SCT030 21/13 Q1024
Loading
Personal Weather Stations






























Interactive Weather Map
Tropical Storm Tracking
New forecast layout! Learn more

10-Day Weather Forecast

Advertisements
Track Severe Weather on mobile